Time;durP1;ratioP1;P1;durP2;ratioP2;P2;SDS_P1;SDS_P2;PMS_P1;PMS_P2;Temp;Humidity;BMP_temperature;BMP_pressure;BME280_temperature;BME280_humidity;BME280_pressure;Samples;Min_cycle;Max_cycle;Signal;HPM_P1;HPM_P2
2021/08/24 00:00:05;;;;;;;3.72;2.67;;;;;;;-140.79;100.00;63287.88;5008418;28;20048;-75
2021/08/24 00:02:30;;;;;;;3.60;2.58;;;;;;;-140.79;100.00;63287.88;5004534;28;20045;-74
2021/08/24 00:04:56;;;;;;;6.85;2.90;;;;;;;-140.79;100.00;63287.88;5004787;28;20022;-75
2021/08/24 00:07:21;;;;;;;4.90;3.22;;;;;;;-140.79;100.00;63287.88;5005143;28;20022;-73
2021/08/24 00:09:48;;;;;;;4.28;2.83;;;;;;;-140.79;100.00;63287.88;5006357;28;20481;-75
2021/08/24 00:12:13;;;;;;;5.15;3.03;;;;;;;-140.79;100.00;63287.88;5006706;28;20057;-74
2021/08/24 00:14:39;;;;;;;5.93;3.00;;;;;;;-140.79;100.00;63287.88;5006327;28;20022;-75
2021/08/24 00:17:04;;;;;;;4.60;2.42;;;;;;;-140.79;100.00;63287.88;5006384;28;20045;-74
2021/08/24 00:19:30;;;;;;;4.80;3.05;;;;;;;-140.79;100.00;63287.88;5003924;28;20030;-77
2021/08/24 00:21:55;;;;;;;5.38;2.92;;;;;;;-140.79;100.00;63287.88;5006377;28;20602;-75
2021/08/24 00:24:21;;;;;;;5.50;3.15;;;;;;;-140.79;100.00;63287.88;5005334;28;20540;-75
2021/08/24 00:26:46;;;;;;;4.88;3.70;;;;;;;-140.79;100.00;63287.88;5004793;28;20524;-75
2021/08/24 00:29:12;;;;;;;3.85;3.08;;;;;;;-140.79;100.00;63287.88;4987653;28;20048;-74
2021/08/24 00:31:37;;;;;;;4.22;2.55;;;;;;;-140.79;100.00;63287.88;5005623;28;20026;-75
2021/08/24 00:34:03;;;;;;;4.75;3.00;;;;;;;-140.79;100.00;63287.88;5004926;28;20033;-74
2021/08/24 00:36:28;;;;;;;5.70;3.00;;;;;;;-140.79;100.00;63287.88;5005848;28;20038;-74
2021/08/24 00:38:54;;;;;;;6.95;3.17;;;;;;;-140.79;100.00;63287.88;5005715;28;20033;-74
2021/08/24 00:41:19;;;;;;;4.93;2.88;;;;;;;-140.79;100.00;63287.88;5002857;28;20022;-75
2021/08/24 00:43:45;;;;;;;6.28;3.60;;;;;;;-140.79;100.00;63287.88;5004924;28;20042;-74
2021/08/24 00:46:31;;;;;;;4.93;3.17;;;;;;;-140.79;100.00;63287.88;5004125;28;20511;-74
2021/08/24 00:48:59;;;;;;;5.32;3.08;;;;;;;-140.79;100.00;63287.88;5005028;28;20017;-74
2021/08/24 00:51:25;;;;;;;4.90;3.10;;;;;;;-140.79;100.00;63287.88;4990607;28;20034;-74
2021/08/24 00:53:50;;;;;;;5.22;3.00;;;;;;;-140.79;100.00;63287.88;5009829;28;20037;-75
2021/08/24 00:56:16;;;;;;;4.78;3.28;;;;;;;-140.79;100.00;63287.88;5009229;28;20029;-75
2021/08/24 00:58:41;;;;;;;3.47;2.90;;;;;;;-140.79;100.00;63287.88;5009801;28;20082;-74
2021/08/24 01:01:07;;;;;;;4.97;3.13;;;;;;;-140.79;100.00;63287.88;5008950;28;20045;-75
2021/08/24 01:03:37;;;;;;;5.32;3.22;;;;;;;-140.79;100.00;63287.88;5008403;28;20593;-75
2021/08/24 01:06:28;;;;;;;5.30;3.20;;;;;;;-140.79;100.00;63287.88;4991461;28;20034;-75
2021/08/24 01:09:04;;;;;;;5.05;3.10;;;;;;;-140.79;100.00;63287.88;4990201;28;20044;-75
2021/08/24 01:11:31;;;;;;;4.38;3.03;;;;;;;-140.79;100.00;63287.88;4976654;28;20025;-75
2021/08/24 01:14:13;;;;;;;6.95;3.35;;;;;;;-140.79;100.00;63287.88;4990971;28;20034;-75
2021/08/24 01:16:59;;;;;;;5.32;3.05;;;;;;;-140.79;100.00;63287.88;4991702;28;20036;-75
2021/08/24 01:19:55;;;;;;;6.68;3.90;;;;;;;-140.79;100.00;63287.88;4976506;28;20061;-75
2021/08/24 01:22:42;;;;;;;6.35;3.47;;;;;;;-140.79;100.00;63287.88;5009266;28;20707;-74
2021/08/24 01:25:08;;;;;;;5.05;3.30;;;;;;;-140.79;100.00;63287.88;5006789;28;20022;-76
2021/08/24 01:27:40;;;;;;;4.60;3.35;;;;;;;-140.79;100.00;63287.88;5007421;28;20614;-75
2021/08/24 01:30:15;;;;;;;4.32;3.00;;;;;;;-140.79;100.00;63287.88;4975342;28;20115;-75
2021/08/24 01:32:47;;;;;;;4.60;2.80;;;;;;;-140.79;100.00;63287.88;4983468;28;20088;-76
2021/08/24 01:35:44;;;;;;;6.68;3.47;;;;;;;-140.79;100.00;63287.88;4972419;28;20022;-75
2021/08/24 01:38:26;;;;;;;4.40;3.10;;;;;;;-140.79;100.00;63287.88;4988706;28;20053;-76
2021/08/24 01:41:09;;;;;;;4.90;3.33;;;;;;;-140.79;100.00;63287.88;4972675;28;20026;-73
2021/08/24 01:44:00;;;;;;;5.22;3.20;;;;;;;-140.79;100.00;63287.88;4989771;28;20041;-74
2021/08/24 01:46:45;;;;;;;4.07;3.00;;;;;;;-140.79;100.00;63287.88;4992029;28;20034;-74
2021/08/24 01:49:10;;;;;;;4.70;3.45;;;;;;;-140.79;100.00;63287.88;5003197;28;20084;-75
2021/08/24 01:51:41;;;;;;;5.32;3.30;;;;;;;-140.79;100.00;63287.88;4991249;28;20416;-74
2021/08/24 01:54:32;;;;;;;6.47;3.65;;;;;;;-140.79;100.00;63287.88;5007189;28;20064;-74
2021/08/24 01:56:57;;;;;;;7.10;3.67;;;;;;;-140.79;100.00;63287.88;4982716;28;20045;-76
2021/08/24 02:00:12;;;;;;;6.75;3.67;;;;;;;-140.79;100.00;63287.88;4975033;28;20393;-74
2021/08/24 02:02:59;;;;;;;5.57;3.30;;;;;;;-140.79;100.00;63287.88;4983136;28;21672;-75
2021/08/24 02:05:42;;;;;;;4.88;3.67;;;;;;;-140.79;100.00;63287.88;4970194;28;20136;-74
2021/08/24 02:08:10;;;;;;;5.57;3.50;;;;;;;-140.79;100.00;63287.88;4986384;28;20488;-75
2021/08/24 02:10:35;;;;;;;6.03;3.55;;;;;;;-140.79;100.00;63287.88;4971417;28;20041;-75
2021/08/24 02:13:01;;;;;;;5.43;3.90;;;;;;;-140.79;100.00;63287.88;4971492;28;20026;-75
2021/08/24 02:15:34;;;;;;;5.22;3.28;;;;;;;-140.79;100.00;63287.88;4971518;28;20440;-75
2021/08/24 02:17:59;;;;;;;6.28;3.65;;;;;;;-140.79;100.00;63287.88;4971118;28;20049;-75
2021/08/24 02:20:27;;;;;;;7.50;3.70;;;;;;;-140.79;100.00;63287.88;4972160;28;20022;-75
2021/08/24 02:22:58;;;;;;;5.13;3.63;;;;;;;-140.79;100.00;63287.88;4956395;28;20030;-75
2021/08/24 02:25:26;;;;;;;6.78;4.28;;;;;;;-140.79;100.00;63287.88;4989388;28;20064;-75
2021/08/24 02:28:08;;;;;;;5.32;3.50;;;;;;;-140.79;100.00;63287.88;5005000;28;20120;-74
2021/08/24 02:30:34;;;;;;;6.03;3.60;;;;;;;-140.79;100.00;63287.88;4974838;28;20143;-74
2021/08/24 02:32:59;;;;;;;5.85;3.47;;;;;;;-140.79;100.00;63287.88;4972623;28;20029;-75
2021/08/24 02:35:35;;;;;;;4.78;3.40;;;;;;;-140.79;100.00;63287.88;4989376;28;20033;-74
2021/08/24 02:38:07;;;;;;;6.35;3.60;;;;;;;-140.79;100.00;63287.88;4989023;28;20030;-74
2021/08/24 02:40:51;;;;;;;6.50;3.85;;;;;;;-140.79;100.00;63287.88;4990834;28;20121;-74
2021/08/24 02:43:58;;;;;;;6.13;3.70;;;;;;;-140.79;100.00;63287.88;5003677;28;20030;-75
2021/08/24 02:46:26;;;;;;;7.28;3.67;;;;;;;-140.79;100.00;63287.88;4946777;28;20053;-75
2021/08/24 02:48:56;;;;;;;6.53;3.90;;;;;;;-140.79;100.00;63287.88;4966615;28;20049;-75
2021/08/24 02:51:22;;;;;;;6.10;3.67;;;;;;;-140.79;100.00;63287.88;4970470;28;20026;-74
2021/08/24 02:53:53;;;;;;;5.68;3.60;;;;;;;-140.79;100.00;63287.88;4986207;28;20040;-74
2021/08/24 02:56:18;;;;;;;6.05;3.85;;;;;;;-140.79;100.00;63287.88;4975407;28;20038;-75
2021/08/24 02:58:44;;;;;;;6.03;3.83;;;;;;;-140.79;100.00;63287.88;5007534;28;20026;-74
2021/08/24 03:01:09;;;;;;;6.20;4.10;;;;;;;-140.79;100.00;63287.88;4987716;28;20037;-75
2021/08/24 03:03:35;;;;;;;6.05;4.18;;;;;;;-140.79;100.00;63287.88;5007276;28;20111;-75
2021/08/24 03:06:00;;;;;;;4.95;3.47;;;;;;;-140.79;100.00;63287.88;4988047;28;20104;-74
2021/08/24 03:08:26;;;;;;;5.28;3.80;;;;;;;-140.79;100.00;63287.88;5006261;28;20471;-74
2021/08/24 03:10:51;;;;;;;4.07;3.30;;;;;;;-140.79;100.00;63287.88;4988865;28;20025;-75
2021/08/24 03:13:36;;;;;;;6.05;3.88;;;;;;;-140.79;100.00;63287.88;4988671;28;20021;-74
2021/08/24 03:16:06;;;;;;;4.60;3.47;;;;;;;-140.79;100.00;63287.88;4998469;28;20030;-75
2021/08/24 03:18:40;;;;;;;4.78;3.53;;;;;;;-140.79;100.00;63287.88;4981694;28;20034;-74
2021/08/24 03:21:09;;;;;;;5.95;3.72;;;;;;;-140.79;100.00;63287.88;4992058;28;20117;-74
2021/08/24 03:23:37;;;;;;;5.70;3.80;;;;;;;-140.79;100.00;63287.88;4987535;28;20034;-75
2021/08/24 03:26:02;;;;;;;6.88;3.80;;;;;;;-140.79;100.00;63287.88;4988366;28;20018;-75
2021/08/24 03:28:28;;;;;;;5.60;3.50;;;;;;;-140.79;100.00;63287.88;5004960;28;20030;-75
2021/08/24 03:30:53;;;;;;;5.55;3.63;;;;;;;-140.79;100.00;63287.88;4987385;28;20038;-75
2021/08/24 03:33:19;;;;;;;5.10;3.42;;;;;;;-140.79;100.00;63287.88;4987106;28;20080;-77
2021/08/24 03:35:44;;;;;;;10.48;3.90;;;;;;;-140.79;100.00;63287.88;4987436;28;20034;-74
2021/08/24 03:38:10;;;;;;;6.00;3.72;;;;;;;-140.79;100.00;63287.88;4987402;28;20761;-75
2021/08/24 03:40:36;;;;;;;10.80;4.07;;;;;;;-140.79;100.00;63287.88;4995984;28;20052;-75
2021/08/24 03:43:01;;;;;;;5.32;3.83;;;;;;;-140.79;100.00;63287.88;4988453;28;20488;-75
2021/08/24 03:45:27;;;;;;;4.72;3.50;;;;;;;-140.79;100.00;63287.88;4987906;28;20037;-74
2021/08/24 03:47:52;;;;;;;6.03;3.90;;;;;;;-140.79;100.00;63287.88;5003019;28;20234;-78
2021/08/24 03:50:18;;;;;;;7.15;3.85;;;;;;;-140.79;100.00;63287.88;5006382;28;20492;-74
2021/08/24 03:52:43;;;;;;;6.50;4.32;;;;;;;-140.79;100.00;63287.88;5001377;28;20030;-75
2021/08/24 03:55:09;;;;;;;6.68;4.28;;;;;;;-140.79;100.00;63287.88;4987312;28;20030;-74
2021/08/24 03:57:35;;;;;;;8.07;4.20;;;;;;;-140.79;100.00;63287.88;4999541;28;20032;-73
2021/08/24 04:00:00;;;;;;;5.32;3.85;;;;;;;-140.79;100.00;63287.88;5004825;28;20022;-74
2021/08/24 04:02:27;;;;;;;8.00;4.32;;;;;;;-140.79;100.00;63287.88;5005123;28;20033;-74
2021/08/24 04:04:52;;;;;;;8.23;4.57;;;;;;;-140.79;100.00;63287.88;5002270;28;20034;-73
2021/08/24 04:07:18;;;;;;;6.15;3.95;;;;;;;-140.79;100.00;63287.88;5003649;28;20825;-74
2021/08/24 04:09:43;;;;;;;8.73;4.40;;;;;;;-140.79;100.00;63287.88;4998427;28;20037;-74
2021/08/24 04:12:09;;;;;;;6.28;4.55;;;;;;;-140.79;100.00;63287.88;5002779;28;20116;-75
2021/08/24 04:14:34;;;;;;;6.80;4.43;;;;;;;-140.79;100.00;63287.88;5003322;28;20033;-75
2021/08/24 04:17:00;;;;;;;6.63;4.60;;;;;;;-140.79;100.00;63287.88;4997451;28;20044;-73
2021/08/24 04:19:25;;;;;;;8.90;4.63;;;;;;;-140.79;100.00;63287.88;4982128;28;20033;-74
2021/08/24 04:21:51;;;;;;;6.95;4.53;;;;;;;-140.79;100.00;63287.88;5002339;28;20467;-74
2021/08/24 04:24:16;;;;;;;6.57;4.75;;;;;;;-140.79;100.00;63287.88;5004840;28;20782;-74
2021/08/24 04:26:42;;;;;;;5.88;4.43;;;;;;;-140.79;100.00;63287.88;5004531;28;20026;-75
2021/08/24 04:29:07;;;;;;;7.82;4.63;;;;;;;-140.79;100.00;63287.88;5005123;28;20604;-74
2021/08/24 04:31:38;;;;;;;7.07;4.80;;;;;;;-140.79;100.00;63287.88;4990677;28;20048;-75
2021/08/24 04:34:03;;;;;;;8.20;5.18;;;;;;;-140.79;100.00;63287.88;4987085;28;20022;-74
2021/08/24 04:36:28;;;;;;;8.43;5.20;;;;;;;-140.79;100.00;63287.88;4987834;28;20022;-73
2021/08/24 04:38:54;;;;;;;7.53;4.88;;;;;;;-140.79;100.00;63287.88;5003559;28;20037;-75
2021/08/24 04:41:19;;;;;;;6.20;4.78;;;;;;;-140.79;100.00;63287.88;5005242;28;20026;-74
2021/08/24 04:43:45;;;;;;;6.88;5.38;;;;;;;-140.79;100.00;63287.88;5005181;28;20044;-75
2021/08/24 04:46:10;;;;;;;8.05;5.15;;;;;;;-140.79;100.00;63287.88;5000878;28;20022;-74
2021/08/24 04:48:36;;;;;;;7.15;4.88;;;;;;;-140.79;100.00;63287.88;5005243;28;20389;-75
2021/08/24 04:51:01;;;;;;;8.65;5.68;;;;;;;-140.79;100.00;63287.88;5001575;28;20481;-75
2021/08/24 04:53:29;;;;;;;9.80;5.15;;;;;;;-140.79;100.00;63287.88;4972131;28;20022;-75
2021/08/24 04:55:54;;;;;;;6.57;4.93;;;;;;;-140.79;100.00;63287.88;5003821;28;20703;-75
2021/08/24 04:58:20;;;;;;;11.82;5.03;;;;;;;-140.79;100.00;63287.88;5000732;28;20015;-75
2021/08/24 05:00:45;;;;;;;8.30;5.15;;;;;;;-140.79;100.00;63287.88;4989865;28;20101;-73
2021/08/24 05:03:11;;;;;;;9.18;5.45;;;;;;;-140.79;100.00;63287.88;4975767;28;20034;-75
2021/08/24 05:05:36;;;;;;;8.60;5.10;;;;;;;-140.79;100.00;63287.88;4989623;28;20488;-75
2021/08/24 05:08:03;;;;;;;11.75;5.53;;;;;;;-140.79;100.00;63287.88;4989553;28;20062;-76
2021/08/24 05:10:29;;;;;;;11.13;5.18;;;;;;;-140.79;100.00;63287.88;5004264;28;20546;-75
2021/08/24 05:12:54;;;;;;;9.05;4.80;;;;;;;-140.79;100.00;63287.88;5006110;28;20061;-74
2021/08/24 05:15:20;;;;;;;9.50;5.20;;;;;;;-140.79;100.00;63287.88;5000596;28;20018;-78
2021/08/24 05:17:49;;;;;;;8.90;4.68;;;;;;;-140.79;100.00;63287.88;5002504;28;20030;-76
2021/08/24 05:20:14;;;;;;;8.77;5.47;;;;;;;-140.79;100.00;63287.88;4987998;28;20033;-74
2021/08/24 05:22:40;;;;;;;10.23;4.80;;;;;;;-140.79;100.00;63287.88;5006358;28;20341;-75
2021/08/24 05:25:07;;;;;;;8.38;5.38;;;;;;;-140.79;100.00;63287.88;4975860;28;20440;-75
2021/08/24 05:27:33;;;;;;;8.68;5.20;;;;;;;-140.79;100.00;63287.88;4990497;28;20038;-79
2021/08/24 05:30:01;;;;;;;8.07;4.93;;;;;;;-140.79;100.00;63287.88;4994261;28;20413;-77
2021/08/24 05:32:28;;;;;;;9.32;5.07;;;;;;;-140.79;100.00;63287.88;4980040;28;20037;-76
2021/08/24 05:34:53;;;;;;;9.15;4.78;;;;;;;-140.79;100.00;63287.88;4987399;28;20041;-74
2021/08/24 05:37:19;;;;;;;10.82;4.72;;;;;;;-140.79;100.00;63287.88;4973184;28;20405;-76
2021/08/24 05:39:44;;;;;;;7.97;4.68;;;;;;;-140.79;100.00;63287.88;4993268;28;20030;-74
2021/08/24 05:42:10;;;;;;;8.77;5.68;;;;;;;-140.79;100.00;63287.88;4998550;28;20022;-75
2021/08/24 05:44:35;;;;;;;7.70;4.35;;;;;;;-140.79;100.00;63287.88;5002106;28;20492;-74
2021/08/24 05:47:01;;;;;;;11.40;5.15;;;;;;;-140.79;100.00;63287.88;4999391;28;20409;-75
2021/08/24 05:49:31;;;;;;;12.52;5.70;;;;;;;-140.79;100.00;63287.88;4996729;28;20030;-75
2021/08/24 05:51:56;;;;;;;8.73;5.22;;;;;;;-140.79;100.00;63287.88;4994842;28;20017;-76
2021/08/24 05:54:22;;;;;;;9.25;5.70;;;;;;;-140.79;100.00;63287.88;4991858;28;20418;-76
2021/08/24 05:56:49;;;;;;;10.27;5.05;;;;;;;-140.79;100.00;63287.88;5001238;28;20021;-74
2021/08/24 05:59:15;;;;;;;7.55;5.28;;;;;;;-140.79;100.00;63287.88;5003994;28;20022;-75
2021/08/24 06:01:40;;;;;;;9.55;6.00;;;;;;;-140.79;100.00;63287.88;5000638;28;20089;-75
2021/08/24 06:04:06;;;;;;;9.93;5.80;;;;;;;-140.79;100.00;63287.88;4970836;28;20046;-76
2021/08/24 06:06:33;;;;;;;12.13;7.20;;;;;;;-140.79;100.00;63287.88;4988690;28;20548;-74
2021/08/24 06:08:59;;;;;;;10.35;6.43;;;;;;;-140.79;100.00;63287.88;4988445;28;20073;-73
2021/08/24 06:11:29;;;;;;;8.70;5.68;;;;;;;-140.79;100.00;63287.88;4988044;28;20026;-73
2021/08/24 06:13:55;;;;;;;7.97;5.68;;;;;;;-140.79;100.00;63287.88;4971012;28;20026;-75
2021/08/24 06:16:20;;;;;;;11.35;6.65;;;;;;;-140.79;100.00;63287.88;4990822;28;20117;-76
2021/08/24 06:18:45;;;;;;;11.55;5.90;;;;;;;-140.79;100.00;63287.88;4982906;28;20027;-74
2021/08/24 06:21:11;;;;;;;11.63;6.30;;;;;;;-140.79;100.00;63287.88;4999332;28;20045;-75
2021/08/24 06:23:36;;;;;;;9.90;5.82;;;;;;;-140.79;100.00;63287.88;5000538;28;20033;-74
2021/08/24 06:26:02;;;;;;;9.32;5.78;;;;;;;-140.79;100.00;63287.88;4995537;28;20023;-75
2021/08/24 06:28:28;;;;;;;9.10;5.60;;;;;;;-140.79;100.00;63287.88;4990112;28;20060;-74
2021/08/24 06:30:53;;;;;;;9.50;5.57;;;;;;;-140.79;100.00;63287.88;4997599;28;20030;-74
2021/08/24 06:33:20;;;;;;;11.63;5.80;;;;;;;-140.79;100.00;63287.88;4984306;28;20408;-78
2021/08/24 06:35:45;;;;;;;10.85;6.20;;;;;;;-140.79;100.00;63287.88;4973597;28;20590;-76
2021/08/24 06:38:11;;;;;;;10.00;5.78;;;;;;;-140.79;100.00;63287.88;4990526;28;20053;-74
2021/08/24 06:40:37;;;;;;;14.52;5.32;;;;;;;-140.79;100.00;63287.88;4989326;28;20034;-74
2021/08/24 06:43:03;;;;;;;10.63;6.15;;;;;;;-140.79;100.00;63287.88;4965355;28;20473;-73
2021/08/24 06:45:30;;;;;;;9.70;5.65;;;;;;;-140.79;100.00;63287.88;4990279;28;20030;-74
2021/08/24 06:47:56;;;;;;;10.18;5.80;;;;;;;-140.79;100.00;63287.88;5007739;28;20057;-73
2021/08/24 06:50:21;;;;;;;9.27;5.40;;;;;;;-140.79;100.00;63287.88;4999524;28;20408;-73
2021/08/24 06:52:47;;;;;;;9.60;5.28;;;;;;;-140.79;100.00;63287.88;5003188;28;20068;-73
2021/08/24 06:55:13;;;;;;;12.35;6.15;;;;;;;-140.79;100.00;63287.88;5009960;28;20033;-73
2021/08/24 06:57:39;;;;;;;9.77;5.50;;;;;;;-140.79;100.00;63287.88;5007915;28;20030;-73
2021/08/24 07:00:06;;;;;;;9.40;5.88;;;;;;;-140.79;100.00;63287.88;5005218;28;20113;-74
2021/08/24 07:02:31;;;;;;;7.88;5.45;;;;;;;-140.79;100.00;63287.88;4993048;28;20022;-74
2021/08/24 07:04:57;;;;;;;9.57;5.93;;;;;;;-140.79;100.00;63287.88;4977823;28;20030;-75
2021/08/24 07:07:22;;;;;;;8.65;5.65;;;;;;;-140.79;100.00;63287.88;4988287;28;20041;-74
2021/08/24 07:09:48;;;;;;;12.38;5.80;;;;;;;-140.79;100.00;63287.88;4989677;28;20018;-75
2021/08/24 07:12:13;;;;;;;8.40;5.10;;;;;;;-140.79;100.00;63287.88;4988840;28;20027;-74
2021/08/24 07:14:39;;;;;;;10.07;5.72;;;;;;;-140.79;100.00;63287.88;4973045;28;20509;-75
2021/08/24 07:17:04;;;;;;;10.73;5.80;;;;;;;-140.79;100.00;63287.88;4988819;28;20037;-73
2021/08/24 07:19:30;;;;;;;9.60;5.45;;;;;;;-140.79;100.00;63287.88;4984605;28;20017;-73
2021/08/24 07:21:55;;;;;;;9.70;6.25;;;;;;;-140.79;100.00;63287.88;4995227;28;20030;-73
2021/08/24 07:24:23;;;;;;;9.75;5.90;;;;;;;-140.79;100.00;63287.88;4994038;28;20026;-74
2021/08/24 07:26:49;;;;;;;11.52;5.47;;;;;;;-140.79;100.00;63287.88;4987786;28;20022;-73
2021/08/24 07:29:15;;;;;;;10.18;6.13;;;;;;;-140.79;100.00;63287.88;4988595;28;20413;-74
2021/08/24 07:31:40;;;;;;;7.45;5.60;;;;;;;-140.79;100.00;63287.88;4990637;28;20095;-74
2021/08/24 07:34:06;;;;;;;12.93;6.53;;;;;;;-140.79;100.00;63287.88;4988352;28;20473;-73
2021/08/24 07:36:31;;;;;;;14.90;6.15;;;;;;;-140.79;100.00;63287.88;4972879;28;20389;-74
2021/08/24 07:38:57;;;;;;;12.98;5.70;;;;;;;-140.79;100.00;63287.88;4987923;28;20027;-74
2021/08/24 07:41:23;;;;;;;15.82;5.60;;;;;;;-140.79;100.00;63287.88;4981414;28;20030;-74
2021/08/24 07:43:48;;;;;;;12.65;5.43;;;;;;;-140.79;100.00;63287.88;4991697;28;20023;-74
2021/08/24 07:46:13;;;;;;;11.50;5.97;;;;;;;-140.79;100.00;63287.88;4994744;28;20022;-74
2021/08/24 07:48:39;;;;;;;10.63;5.70;;;;;;;-140.79;100.00;63287.88;4994909;28;20033;-73
2021/08/24 07:51:04;;;;;;;11.68;5.78;;;;;;;-140.79;100.00;63287.88;5005409;28;20488;-73
2021/08/24 07:53:30;;;;;;;10.32;6.00;;;;;;;-140.79;100.00;63287.88;4985973;28;20026;-73
2021/08/24 07:55:55;;;;;;;10.82;5.13;;;;;;;-140.79;100.00;63287.88;5004964;28;20034;-74
2021/08/24 07:58:21;;;;;;;11.88;5.90;;;;;;;-140.79;100.00;63287.88;5004212;28;20036;-73
2021/08/24 08:00:47;;;;;;;10.13;5.63;;;;;;;-140.79;100.00;63287.88;5005356;28;20104;-73
2021/08/24 08:03:12;;;;;;;8.95;5.47;;;;;;;-140.79;100.00;63287.88;5003490;28;20468;-74
2021/08/24 08:05:37;;;;;;;8.65;5.82;;;;;;;-140.79;100.00;63287.88;5005190;28;20113;-72
2021/08/24 08:08:03;;;;;;;12.27;4.90;;;;;;;-140.79;100.00;63287.88;5004252;28;20041;-72
2021/08/24 08:10:28;;;;;;;10.80;5.68;;;;;;;-140.79;100.00;63287.88;5005207;28;20062;-73
2021/08/24 08:12:54;;;;;;;10.25;5.90;;;;;;;-140.79;100.00;63287.88;4986829;28;20029;-73
2021/08/24 08:15:19;;;;;;;12.77;5.30;;;;;;;-140.79;100.00;63287.88;4987471;28;20096;-73
2021/08/24 08:17:45;;;;;;;10.20;5.45;;;;;;;-140.79;100.00;63287.88;5004571;28;20036;-73
2021/08/24 08:20:11;;;;;;;8.38;4.78;;;;;;;-140.79;100.00;63287.88;5004588;28;20026;-73
2021/08/24 08:22:37;;;;;;;10.85;4.85;;;;;;;-140.79;100.00;63287.88;5004630;28;20036;-73
2021/08/24 08:25:03;;;;;;;9.07;5.00;;;;;;;-140.79;100.00;63287.88;5003344;28;20026;-76
2021/08/24 08:27:29;;;;;;;6.75;4.75;;;;;;;-140.79;100.00;63287.88;5023344;28;20082;-76
2021/08/24 08:29:54;;;;;;;9.38;5.65;;;;;;;-140.79;100.00;63287.88;5009083;28;20498;-76
2021/08/24 08:32:23;;;;;;;9.43;4.78;;;;;;;-140.79;100.00;63287.88;5000887;28;20030;-76
2021/08/24 08:34:48;;;;;;;9.93;4.78;;;;;;;-140.79;100.00;63287.88;4986972;28;20187;-75
2021/08/24 08:37:14;;;;;;;11.70;5.55;;;;;;;-140.79;100.00;63287.88;5004149;28;20432;-75
2021/08/24 08:39:39;;;;;;;11.20;5.30;;;;;;;-140.79;100.00;63287.88;5004756;28;20393;-76
2021/08/24 08:42:11;;;;;;;9.93;4.82;;;;;;;-140.79;100.00;63287.88;5004999;28;20022;-76
2021/08/24 08:44:53;;;;;;;8.40;5.15;;;;;;;-140.79;100.00;63287.88;4987535;28;20113;-76
2021/08/24 08:47:28;;;;;;;12.88;5.38;;;;;;;-140.79;100.00;63287.88;4984504;28;20060;-76
2021/08/24 08:50:11;;;;;;;11.77;5.28;;;;;;;-140.79;100.00;63287.88;4985037;28;20113;-76
2021/08/24 08:52:54;;;;;;;9.63;4.93;;;;;;;-140.79;100.00;63287.88;4968138;28;20083;-77
2021/08/24 08:55:35;;;;;;;10.35;4.97;;;;;;;-140.79;100.00;63287.88;4983985;28;20029;-76
2021/08/24 08:58:06;;;;;;;9.23;5.43;;;;;;;-140.79;100.00;63287.88;4967663;28;20038;-76
2021/08/24 09:00:46;;;;;;;9.68;4.53;;;;;;;-140.79;100.00;63287.88;4984706;28;20038;-76
2021/08/24 09:03:15;;;;;;;11.57;4.75;;;;;;;-140.79;100.00;63287.88;4978469;28;20053;-76
2021/08/24 09:05:42;;;;;;;11.75;5.03;;;;;;;-140.79;100.00;63287.88;4986401;28;20054;-76
2021/08/24 09:08:08;;;;;;;7.53;4.25;;;;;;;-140.79;100.00;63287.88;5003741;28;20526;-76
2021/08/24 09:10:41;;;;;;;8.13;4.97;;;;;;;-140.79;100.00;63287.88;5004787;28;20022;-76
2021/08/24 09:13:30;;;;;;;7.15;4.78;;;;;;;-140.79;100.00;63287.88;5003478;28;20053;-76
2021/08/24 09:16:20;;;;;;;7.90;4.60;;;;;;;-140.79;100.00;63287.88;4990690;28;20496;-78
2021/08/24 09:18:48;;;;;;;7.28;4.13;;;;;;;-140.79;100.00;63287.88;4992958;28;20617;-78
2021/08/24 09:21:22;;;;;;;7.38;4.80;;;;;;;-140.79;100.00;63287.88;5008062;28;20038;-76
2021/08/24 09:23:47;;;;;;;12.32;4.47;;;;;;;-140.79;100.00;63287.88;4975097;28;20025;-76
2021/08/24 09:26:23;;;;;;;6.97;4.18;;;;;;;-140.79;100.00;63287.88;5006771;28;20076;-75
2021/08/24 09:28:49;;;;;;;6.00;4.40;;;;;;;-140.79;100.00;63287.88;4988629;28;20044;-76
2021/08/24 09:31:19;;;;;;;5.95;4.82;;;;;;;-140.79;100.00;63287.88;4973107;28;20026;-76
2021/08/24 09:33:45;;;;;;;5.80;4.22;;;;;;;-140.79;100.00;63287.88;4973011;28;20428;-76
2021/08/24 09:36:10;;;;;;;5.63;3.95;;;;;;;-140.79;100.00;63287.88;4990145;28;20057;-76
2021/08/24 09:38:47;;;;;;;7.43;4.30;;;;;;;-140.79;100.00;63287.88;4989163;28;20021;-76
2021/08/24 09:41:23;;;;;;;9.40;4.30;;;;;;;-140.79;100.00;63287.88;5007663;28;20096;-76
2021/08/24 09:43:49;;;;;;;7.10;4.30;;;;;;;-140.79;100.00;63287.88;5008108;28;20380;-76
2021/08/24 09:46:17;;;;;;;10.38;3.83;;;;;;;-140.79;100.00;63287.88;5007823;28;20049;-76
2021/08/24 09:48:55;;;;;;;5.95;3.88;;;;;;;-140.79;100.00;63287.88;5006911;28;20087;-76
2021/08/24 09:51:42;;;;;;;7.35;4.47;;;;;;;-140.79;100.00;63287.88;5007306;28;20033;-75
2021/08/24 09:54:20;;;;;;;8.23;4.35;;;;;;;-140.79;100.00;63287.88;5006557;28;20428;-76
2021/08/24 09:56:50;;;;;;;7.13;3.92;;;;;;;-140.79;100.00;63287.88;5006242;28;20092;-76
2021/08/24 09:59:24;;;;;;;9.52;4.60;;;;;;;-140.79;100.00;63287.88;4973991;28;20555;-76
2021/08/24 10:01:50;;;;;;;8.20;4.30;;;;;;;-140.79;100.00;63287.88;4972650;28;20069;-76
2021/08/24 10:04:15;;;;;;;6.63;4.10;;;;;;;-140.79;100.00;63287.88;4988832;28;20089;-76
2021/08/24 10:06:56;;;;;;;7.43;4.53;;;;;;;-140.79;100.00;63287.88;4989046;28;20026;-76
2021/08/24 10:09:35;;;;;;;8.73;4.22;;;;;;;-140.79;100.00;63287.88;5007269;28;20032;-76
2021/08/24 10:12:14;;;;;;;9.48;4.57;;;;;;;-140.79;100.00;63287.88;4989903;28;20030;-76
2021/08/24 10:14:40;;;;;;;6.38;4.10;;;;;;;-140.79;100.00;63287.88;5007460;28;20072;-76
2021/08/24 10:17:21;;;;;;;5.93;3.67;;;;;;;-140.79;100.00;63287.88;4988022;28;20034;-76
2021/08/24 10:19:46;;;;;;;12.10;4.43;;;;;;;-140.79;100.00;63287.88;4989646;28;20061;-76
2021/08/24 10:22:16;;;;;;;6.38;4.38;;;;;;;-140.79;100.00;63287.88;5006511;28;20026;-82
2021/08/24 10:24:57;;;;;;;8.48;4.47;;;;;;;-140.79;100.00;63287.88;4970380;28;20017;-78
2021/08/24 10:27:30;;;;;;;7.30;4.50;;;;;;;-140.79;100.00;63287.88;4987696;28;20048;-78
2021/08/24 10:29:57;;;;;;;9.10;5.07;;;;;;;-140.79;100.00;63287.88;4987228;28;20034;-76
2021/08/24 10:32:40;;;;;;;8.30;4.40;;;;;;;-140.79;100.00;63287.88;4974402;28;20041;-77
2021/08/24 10:35:23;;;;;;;8.55;4.68;;;;;;;-140.79;100.00;63287.88;4983671;28;20504;-75
2021/08/24 10:37:48;;;;;;;6.43;4.13;;;;;;;-140.79;100.00;63287.88;5003202;28;20049;-75
2021/08/24 10:40:17;;;;;;;8.13;4.47;;;;;;;-140.79;100.00;63287.88;5005399;28;20038;-73
2021/08/24 10:43:01;;;;;;;7.97;4.40;;;;;;;-140.79;100.00;63287.88;5005276;28;20433;-74
2021/08/24 10:45:31;;;;;;;10.30;4.18;;;;;;;-140.79;100.00;63287.88;5002488;28;20041;-77
2021/08/24 10:47:59;;;;;;;5.82;4.05;;;;;;;-140.79;100.00;63287.88;4981110;28;20029;-78
2021/08/24 10:50:35;;;;;;;8.10;4.40;;;;;;;-140.79;100.00;63287.88;4985960;28;20041;-76
2021/08/24 10:53:05;;;;;;;8.35;4.50;;;;;;;-140.79;100.00;63287.88;4984677;28;20041;-76
2021/08/24 10:55:33;;;;;;;8.10;4.43;;;;;;;-140.79;100.00;63287.88;4986308;28;20038;-80
2021/08/24 10:58:41;;;;;;;7.63;4.37;;;;;;;-140.79;100.00;63287.88;4967847;28;20432;-76
2021/08/24 11:01:26;;;;;;;7.43;4.32;;;;;;;-140.79;100.00;63287.88;4981062;28;20424;-76
2021/08/24 11:04:07;;;;;;;6.63;4.93;;;;;;;-140.79;100.00;63287.88;5003271;28;20103;-76
2021/08/24 11:06:54;;;;;;;8.18;4.13;;;;;;;-140.79;100.00;63287.88;4984854;28;20417;-76
2021/08/24 11:09:31;;;;;;;8.65;4.80;;;;;;;-140.79;100.00;63287.88;5004107;28;20120;-76
2021/08/24 11:12:03;;;;;;;7.00;4.55;;;;;;;-140.79;100.00;63287.88;5006322;28;20037;-76
2021/08/24 11:14:38;;;;;;;7.13;4.20;;;;;;;-140.79;100.00;63287.88;5003991;28;20042;-75
2021/08/24 11:17:08;;;;;;;5.90;4.10;;;;;;;-140.79;100.00;63287.88;4988132;28;20056;-76